sensor_id;sensor_type;location;lat;lon;timestamp;pressure;altitude;pressure_sealevel;temperature;humidity
10176;BME280;18221;38.704;0.152;2023-07-24T00:13:45;98386.22;;;32.92;49.20
10176;BME280;18221;38.704;0.152;2023-07-24T00:16:13;98386.31;;;32.87;49.13
10176;BME280;18221;38.704;0.152;2023-07-24T00:18:41;98359.56;;;32.92;49.33
10176;BME280;18221;38.704;0.152;2023-07-24T00:21:09;98354.25;;;32.96;49.57
10176;BME280;18221;38.704;0.152;2023-07-24T00:23:40;98383.16;;;32.93;49.75
10176;BME280;18221;38.704;0.152;2023-07-24T00:26:08;98368.53;;;32.98;49.48
10176;BME280;18221;38.704;0.152;2023-07-24T00:28:36;98355.81;;;33.02;49.23
10176;BME280;18221;38.704;0.152;2023-07-24T00:31:06;98378.91;;;33.01;49.64
10176;BME280;18221;38.704;0.152;2023-07-24T00:33:34;98371.66;;;32.91;49.80
10176;BME280;18221;38.704;0.152;2023-07-24T00:36:02;98347.31;;;32.85;49.53
10176;BME280;18221;38.704;0.152;2023-07-24T00:38:30;98336.72;;;32.92;49.22
10176;BME280;18221;38.704;0.152;2023-07-24T00:40:58;98336.59;;;32.83;49.10
10176;BME280;18221;38.704;0.152;2023-07-24T00:43:26;98343.13;;;32.87;49.33
10176;BME280;18221;38.704;0.152;2023-07-24T00:45:56;98329.47;;;32.82;49.28
10176;BME280;18221;38.704;0.152;2023-07-24T00:48:26;98333.16;;;32.91;49.02
10176;BME280;18221;38.704;0.152;2023-07-24T00:50:56;98331.97;;;32.97;48.90
10176;BME280;18221;38.704;0.152;2023-07-24T00:53:24;98315.81;;;32.91;48.75
10176;BME280;18221;38.704;0.152;2023-07-24T00:55:52;98309.72;;;32.94;48.69
10176;BME280;18221;38.704;0.152;2023-07-24T00:58:21;98307.06;;;32.89;48.55
10176;BME280;18221;38.704;0.152;2023-07-24T01:00:51;98271.81;;;32.91;48.46
10176;BME280;18221;38.704;0.152;2023-07-24T01:03:20;98249.00;;;32.90;48.50
10176;BME280;18221;38.704;0.152;2023-07-24T01:05:51;98268.25;;;32.90;48.37
10176;BME280;18221;38.704;0.152;2023-07-24T01:08:19;98239.66;;;32.91;48.03
10176;BME280;18221;38.704;0.152;2023-07-24T01:10:47;98282.00;;;32.90;48.26
10176;BME280;18221;38.704;0.152;2023-07-24T01:13:22;98256.84;;;32.83;48.42
10176;BME280;18221;38.704;0.152;2023-07-24T01:15:57;98276.59;;;32.85;48.49
10176;BME280;18221;38.704;0.152;2023-07-24T01:18:30;98268.44;;;32.80;48.80
10176;BME280;18221;38.704;0.152;2023-07-24T01:21:01;98242.06;;;32.79;48.64
10176;BME280;18221;38.704;0.152;2023-07-24T01:23:45;98243.28;;;32.73;49.03
10176;BME280;18221;38.704;0.152;2023-07-24T01:26:23;98249.78;;;32.64;49.15
10176;BME280;18221;38.704;0.152;2023-07-24T01:28:52;98228.66;;;32.59;49.45
10176;BME280;18221;38.704;0.152;2023-07-24T01:31:20;98234.31;;;32.49;49.41
10176;BME280;18221;38.704;0.152;2023-07-24T01:33:48;98234.84;;;32.51;49.43
10176;BME280;18221;38.704;0.152;2023-07-24T01:36:18;98223.78;;;32.56;49.33
10176;BME280;18221;38.704;0.152;2023-07-24T01:38:48;98229.34;;;32.51;49.43
10176;BME280;18221;38.704;0.152;2023-07-24T01:41:18;98232.63;;;32.53;49.71
10176;BME280;18221;38.704;0.152;2023-07-24T01:43:48;98219.13;;;32.52;49.49
10176;BME280;18221;38.704;0.152;2023-07-24T01:46:16;98223.78;;;32.56;49.54
10176;BME280;18221;38.704;0.152;2023-07-24T01:48:44;98219.91;;;32.57;49.38
10176;BME280;18221;38.704;0.152;2023-07-24T01:51:12;98216.34;;;32.57;49.43
10176;BME280;18221;38.704;0.152;2023-07-24T01:53:40;98235.63;;;32.52;49.51
10176;BME280;18221;38.704;0.152;2023-07-24T01:56:08;98198.81;;;32.53;49.63
10176;BME280;18221;38.704;0.152;2023-07-24T01:58:36;98204.56;;;32.56;49.16
10176;BME280;18221;38.704;0.152;2023-07-24T02:01:06;98194.97;;;32.54;49.05
10176;BME280;18221;38.704;0.152;2023-07-24T02:03:34;98180.41;;;32.53;49.27
10176;BME280;18221;38.704;0.152;2023-07-24T02:06:02;98210.91;;;32.52;49.32
10176;BME280;18221;38.704;0.152;2023-07-24T02:08:30;98229.94;;;32.48;49.16
10176;BME280;18221;38.704;0.152;2023-07-24T02:10:58;98212.25;;;32.54;49.30
10176;BME280;18221;38.704;0.152;2023-07-24T02:13:26;98203.88;;;32.46;49.57
10176;BME280;18221;38.704;0.152;2023-07-24T02:15:54;98204.75;;;32.41;49.47
10176;BME280;18221;38.704;0.152;2023-07-24T02:18:24;98225.19;;;32.35;49.58
10176;BME280;18221;38.704;0.152;2023-07-24T02:20:52;98211.66;;;32.38;49.87
10176;BME280;18221;38.704;0.152;2023-07-24T02:23:20;98172.25;;;32.29;50.06
10176;BME280;18221;38.704;0.152;2023-07-24T02:25:51;98204.84;;;32.36;49.75
10176;BME280;18221;38.704;0.152;2023-07-24T02:28:22;98183.59;;;32.42;49.59
10176;BME280;18221;38.704;0.152;2023-07-24T02:30:50;98191.00;;;32.41;49.57
10176;BME280;18221;38.704;0.152;2023-07-24T02:33:23;98215.81;;;32.36;49.70
10176;BME280;18221;38.704;0.152;2023-07-24T02:35:52;98191.31;;;32.40;49.54
10176;BME280;18221;38.704;0.152;2023-07-24T02:38:20;98206.56;;;32.32;49.67
10176;BME280;18221;38.704;0.152;2023-07-24T02:40:49;98216.06;;;32.40;49.70
10176;BME280;18221;38.704;0.152;2023-07-24T02:43:17;98201.34;;;32.30;49.52
10176;BME280;18221;38.704;0.152;2023-07-24T02:45:45;98207.16;;;32.29;49.86
10176;BME280;18221;38.704;0.152;2023-07-24T02:48:13;98209.31;;;32.32;49.68
10176;BME280;18221;38.704;0.152;2023-07-24T02:50:42;98198.31;;;32.32;49.33
10176;BME280;18221;38.704;0.152;2023-07-24T02:53:10;98206.72;;;32.22;49.68
10176;BME280;18221;38.704;0.152;2023-07-24T02:55:43;98206.34;;;32.28;49.64
10176;BME280;18221;38.704;0.152;2023-07-24T02:58:12;98200.16;;;32.36;49.29
10176;BME280;18221;38.704;0.152;2023-07-24T03:00:40;98202.00;;;32.41;49.19
10176;BME280;18221;38.704;0.152;2023-07-24T03:03:08;98190.22;;;32.41;49.04
10176;BME280;18221;38.704;0.152;2023-07-24T03:05:37;98178.41;;;32.40;49.32
10176;BME280;18221;38.704;0.152;2023-07-24T03:08:07;98170.34;;;32.44;49.04
10176;BME280;18221;38.704;0.152;2023-07-24T03:10:34;98167.09;;;32.42;48.81
10176;BME280;18221;38.704;0.152;2023-07-24T03:13:03;98167.31;;;32.45;49.07
10176;BME280;18221;38.704;0.152;2023-07-24T03:15:31;98176.69;;;32.44;48.81
10176;BME280;18221;38.704;0.152;2023-07-24T03:17:59;98194.91;;;32.40;48.75
10176;BME280;18221;38.704;0.152;2023-07-24T03:20:28;98181.25;;;32.35;49.06
10176;BME280;18221;38.704;0.152;2023-07-24T03:22:56;98172.84;;;32.26;49.08
10176;BME280;18221;38.704;0.152;2023-07-24T03:25:25;98180.97;;;32.18;49.15
10176;BME280;18221;38.704;0.152;2023-07-24T03:27:53;98181.19;;;32.21;49.28
10176;BME280;18221;38.704;0.152;2023-07-24T03:30:21;98178.88;;;32.28;48.73
10176;BME280;18221;38.704;0.152;2023-07-24T03:32:50;98177.34;;;32.22;49.20
10176;BME280;18221;38.704;0.152;2023-07-24T03:35:18;98183.19;;;32.16;48.83
10176;BME280;18221;38.704;0.152;2023-07-24T03:37:46;98169.38;;;32.21;48.88
10176;BME280;18221;38.704;0.152;2023-07-24T03:40:15;98181.41;;;32.25;48.66
10176;BME280;18221;38.704;0.152;2023-07-24T03:42:44;98183.94;;;32.21;48.41
10176;BME280;18221;38.704;0.152;2023-07-24T03:45:14;98174.78;;;32.26;48.36
10176;BME280;18221;38.704;0.152;2023-07-24T03:47:42;98139.66;;;32.23;48.42
10176;BME280;18221;38.704;0.152;2023-07-24T03:50:10;98150.66;;;32.23;48.30
10176;BME280;18221;38.704;0.152;2023-07-24T03:52:38;98169.97;;;32.18;48.27
10176;BME280;18221;38.704;0.152;2023-07-24T03:55:07;98162.31;;;32.15;48.31
10176;BME280;18221;38.704;0.152;2023-07-24T03:57:35;98140.59;;;32.00;49.01
10176;BME280;18221;38.704;0.152;2023-07-24T04:00:06;98141.91;;;31.84;49.72
10176;BME280;18221;38.704;0.152;2023-07-24T04:02:34;98134.81;;;31.83;50.17
10176;BME280;18221;38.704;0.152;2023-07-24T04:05:04;98148.31;;;31.79;50.59
10176;BME280;18221;38.704;0.152;2023-07-24T04:07:32;98149.06;;;31.85;50.61
10176;BME280;18221;38.704;0.152;2023-07-24T04:10:00;98160.69;;;31.95;50.11
10176;BME280;18221;38.704;0.152;2023-07-24T04:12:29;98166.59;;;31.89;50.20
10176;BME280;18221;38.704;0.152;2023-07-24T04:14:57;98162.03;;;31.79;50.36
10176;BME280;18221;38.704;0.152;2023-07-24T04:17:27;98180.88;;;31.67;50.95
10176;BME280;18221;38.704;0.152;2023-07-24T04:19:55;98199.66;;;31.78;50.91
10176;BME280;18221;38.704;0.152;2023-07-24T04:22:23;98194.63;;;31.86;50.87
10176;BME280;18221;38.704;0.152;2023-07-24T04:24:54;98209.81;;;31.97;50.54
10176;BME280;18221;38.704;0.152;2023-07-24T04:27:22;98205.03;;;31.89;50.58
10176;BME280;18221;38.704;0.152;2023-07-24T04:29:50;98208.28;;;31.91;50.20
10176;BME280;18221;38.704;0.152;2023-07-24T04:32:18;98189.13;;;31.86;49.92
10176;BME280;18221;38.704;0.152;2023-07-24T04:34:48;98194.16;;;31.78;50.10
10176;BME280;18221;38.704;0.152;2023-07-24T04:37:16;98177.47;;;31.75;50.43
10176;BME280;18221;38.704;0.152;2023-07-24T04:39:44;98188.97;;;31.58;50.89
10176;BME280;18221;38.704;0.152;2023-07-24T04:42:12;98221.38;;;31.56;51.30
10176;BME280;18221;38.704;0.152;2023-07-24T04:44:40;98207.72;;;31.51;51.47
10176;BME280;18221;38.704;0.152;2023-07-24T04:47:08;98201.50;;;31.41;51.63
10176;BME280;18221;38.704;0.152;2023-07-24T04:49:36;98185.38;;;31.34;51.71
10176;BME280;18221;38.704;0.152;2023-07-24T04:52:06;98190.28;;;31.37;51.42
10176;BME280;18221;38.704;0.152;2023-07-24T04:54:34;98191.25;;;31.51;50.80
10176;BME280;18221;38.704;0.152;2023-07-24T04:57:03;98180.44;;;31.60;50.02
10176;BME280;18221;38.704;0.152;2023-07-24T04:59:32;98166.66;;;31.65;49.36
10176;BME280;18221;38.704;0.152;2023-07-24T05:02:00;98169.59;;;31.68;48.91
10176;BME280;18221;38.704;0.152;2023-07-24T05:04:28;98163.44;;;31.76;48.08
10176;BME280;18221;38.704;0.152;2023-07-24T05:06:56;98155.66;;;31.84;48.26
10176;BME280;18221;38.704;0.152;2023-07-24T05:09:26;98161.53;;;31.96;48.25
10176;BME280;18221;38.704;0.152;2023-07-24T05:11:54;98158.25;;;31.94;48.50
10176;BME280;18221;38.704;0.152;2023-07-24T05:14:22;98159.53;;;32.01;48.80
10176;BME280;18221;38.704;0.152;2023-07-24T05:16:50;98165.47;;;32.08;48.47
10176;BME280;18221;38.704;0.152;2023-07-24T05:19:18;98186.25;;;32.14;48.41
10176;BME280;18221;38.704;0.152;2023-07-24T05:21:46;98202.34;;;32.21;48.07
10176;BME280;18221;38.704;0.152;2023-07-24T05:24:14;98202.25;;;32.26;47.90
10176;BME280;18221;38.704;0.152;2023-07-24T05:26:45;98199.50;;;32.26;47.81
10176;BME280;18221;38.704;0.152;2023-07-24T05:29:13;98181.94;;;32.27;47.73
10176;BME280;18221;38.704;0.152;2023-07-24T05:31:41;98175.91;;;32.25;47.62
10176;BME280;18221;38.704;0.152;2023-07-24T05:34:09;98193.41;;;32.29;47.61
10176;BME280;18221;38.704;0.152;2023-07-24T05:36:37;98194.84;;;32.26;47.32
10176;BME280;18221;38.704;0.152;2023-07-24T05:39:06;98172.34;;;32.24;47.47
10176;BME280;18221;38.704;0.152;2023-07-24T05:41:34;98171.44;;;32.29;47.39
10176;BME280;18221;38.704;0.152;2023-07-24T05:44:04;98192.00;;;32.31;47.17
10176;BME280;18221;38.704;0.152;2023-07-24T05:46:32;98203.31;;;32.11;47.37
10176;BME280;18221;38.704;0.152;2023-07-24T05:49:00;98198.13;;;31.91;48.25
10176;BME280;18221;38.704;0.152;2023-07-24T05:51:29;98191.69;;;32.01;47.90
10176;BME280;18221;38.704;0.152;2023-07-24T05:53:57;98197.53;;;32.13;47.25
10176;BME280;18221;38.704;0.152;2023-07-24T05:56:25;98184.84;;;32.17;46.89
10176;BME280;18221;38.704;0.152;2023-07-24T05:58:53;98188.75;;;32.29;46.76
10176;BME280;18221;38.704;0.152;2023-07-24T06:01:23;98180.78;;;32.28;47.33
10176;BME280;18221;38.704;0.152;2023-07-24T06:03:51;98198.75;;;32.39;47.24
10176;BME280;18221;38.704;0.152;2023-07-24T06:06:19;98199.84;;;32.57;46.81
10176;BME280;18221;38.704;0.152;2023-07-24T06:08:47;98189.22;;;32.50;46.77
10176;BME280;18221;38.704;0.152;2023-07-24T06:11:15;98185.97;;;32.48;46.52
10176;BME280;18221;38.704;0.152;2023-07-24T06:13:43;98183.50;;;32.47;46.66
10176;BME280;18221;38.704;0.152;2023-07-24T06:16:11;98169.78;;;32.28;47.05
10176;BME280;18221;38.704;0.152;2023-07-24T06:18:41;98180.19;;;32.31;46.82
10176;BME280;18221;38.704;0.152;2023-07-24T06:21:11;98176.34;;;32.32;47.05
10176;BME280;18221;38.704;0.152;2023-07-24T06:23:39;98190.31;;;32.49;46.77
10176;BME280;18221;38.704;0.152;2023-07-24T06:26:07;98175.84;;;32.62;46.55
10176;BME280;18221;38.704;0.152;2023-07-24T06:28:35;98182.28;;;32.71;46.81
10176;BME280;18221;38.704;0.152;2023-07-24T06:31:04;98190.94;;;32.78;46.40
10176;BME280;18221;38.704;0.152;2023-07-24T06:33:31;98207.75;;;32.90;46.71
10176;BME280;18221;38.704;0.152;2023-07-24T06:36:01;98215.94;;;32.95;46.36
10176;BME280;18221;38.704;0.152;2023-07-24T06:38:29;98219.78;;;32.94;46.13
10176;BME280;18221;38.704;0.152;2023-07-24T06:40:57;98231.59;;;32.81;46.35
10176;BME280;18221;38.704;0.152;2023-07-24T06:43:25;98209.91;;;32.80;46.35
10176;BME280;18221;38.704;0.152;2023-07-24T06:45:54;98195.94;;;32.76;46.35
10176;BME280;18221;38.704;0.152;2023-07-24T06:48:22;98196.84;;;32.72;46.33
10176;BME280;18221;38.704;0.152;2023-07-24T06:50:50;98221.88;;;32.70;45.71
10176;BME280;18221;38.704;0.152;2023-07-24T06:53:19;98225.38;;;32.89;45.15
10176;BME280;18221;38.704;0.152;2023-07-24T06:55:47;98206.25;;;32.98;44.88
10176;BME280;18221;38.704;0.152;2023-07-24T06:58:15;98202.78;;;32.92;45.52
10176;BME280;18221;38.704;0.152;2023-07-24T07:00:43;98199.44;;;32.95;45.25
10176;BME280;18221;38.704;0.152;2023-07-24T07:03:12;98208.28;;;32.92;45.70
10176;BME280;18221;38.704;0.152;2023-07-24T07:05:40;98232.19;;;33.11;45.71
10176;BME280;18221;38.704;0.152;2023-07-24T07:08:08;98255.91;;;33.20;45.14
10176;BME280;18221;38.704;0.152;2023-07-24T07:10:37;98245.91;;;33.24;45.33
10176;BME280;18221;38.704;0.152;2023-07-24T07:13:05;98224.41;;;33.40;44.60
10176;BME280;18221;38.704;0.152;2023-07-24T07:15:35;98214.06;;;33.37;44.43
10176;BME280;18221;38.704;0.152;2023-07-24T07:18:03;98206.41;;;33.34;44.52
10176;BME280;18221;38.704;0.152;2023-07-24T07:20:31;98202.22;;;33.23;45.43
10176;BME280;18221;38.704;0.152;2023-07-24T07:22:59;98196.31;;;33.29;45.18
10176;BME280;18221;38.704;0.152;2023-07-24T07:25:27;98201.72;;;33.21;45.74
10176;BME280;18221;38.704;0.152;2023-07-24T07:27:57;98214.56;;;33.39;45.60
10176;BME280;18221;38.704;0.152;2023-07-24T07:30:25;98233.00;;;33.52;44.78
10176;BME280;18221;38.704;0.152;2023-07-24T07:32:53;98242.06;;;33.52;44.58
10176;BME280;18221;38.704;0.152;2023-07-24T07:35:21;98270.69;;;33.38;45.12
10176;BME280;18221;38.704;0.152;2023-07-24T07:37:49;98292.22;;;33.36;45.58
10176;BME280;18221;38.704;0.152;2023-07-24T07:40:17;98295.69;;;33.55;44.74
10176;BME280;18221;38.704;0.152;2023-07-24T07:42:45;98283.19;;;33.63;44.56
10176;BME280;18221;38.704;0.152;2023-07-24T07:45:15;98274.94;;;33.76;43.62
10176;BME280;18221;38.704;0.152;2023-07-24T07:47:43;98278.06;;;33.83;43.71
10176;BME280;18221;38.704;0.152;2023-07-24T07:50:11;98269.09;;;33.91;43.71
10176;BME280;18221;38.704;0.152;2023-07-24T07:52:39;98261.09;;;34.03;43.13
10176;BME280;18221;38.704;0.152;2023-07-24T07:55:08;98271.28;;;34.17;42.93
10176;BME280;18221;38.704;0.152;2023-07-24T07:57:38;98292.50;;;34.30;41.52
10176;BME280;18221;38.704;0.152;2023-07-24T08:00:07;98298.16;;;34.47;40.73
10176;BME280;18221;38.704;0.152;2023-07-24T08:02:37;98303.47;;;34.79;40.27
10176;BME280;18221;38.704;0.152;2023-07-24T08:05:07;98296.44;;;34.95;40.88
10176;BME280;18221;38.704;0.152;2023-07-24T08:07:35;98282.25;;;35.10;41.21
10176;BME280;18221;38.704;0.152;2023-07-24T08:10:04;98267.25;;;35.56;40.26
10176;BME280;18221;38.704;0.152;2023-07-24T08:12:33;98257.00;;;36.30;38.86
10176;BME280;18221;38.704;0.152;2023-07-24T08:15:01;98232.59;;;36.66;37.00
10176;BME280;18221;38.704;0.152;2023-07-24T08:17:29;98238.09;;;36.83;36.53
10176;BME280;18221;38.704;0.152;2023-07-24T08:19:59;98264.00;;;36.36;37.23
10176;BME280;18221;38.704;0.152;2023-07-24T08:22:27;98257.66;;;36.70;37.08
10176;BME280;18221;38.704;0.152;2023-07-24T08:24:55;98272.91;;;36.84;37.14
10176;BME280;18221;38.704;0.152;2023-07-24T08:27:23;98255.53;;;37.39;36.47
10176;BME280;18221;38.704;0.152;2023-07-24T08:29:52;98230.84;;;37.92;34.88
10176;BME280;18221;38.704;0.152;2023-07-24T08:32:20;98208.84;;;38.37;33.91
10176;BME280;18221;38.704;0.152;2023-07-24T08:34:48;98218.25;;;38.57;33.09
10176;BME280;18221;38.704;0.152;2023-07-24T08:37:18;98243.50;;;38.22;34.64
10176;BME280;18221;38.704;0.152;2023-07-24T08:39:46;98255.75;;;38.21;35.06
10176;BME280;18221;38.704;0.152;2023-07-24T08:42:14;98277.06;;;38.29;34.97
10176;BME280;18221;38.704;0.152;2023-07-24T08:44:43;98283.78;;;38.49;34.34
10176;BME280;18221;38.704;0.152;2023-07-24T08:47:13;98280.56;;;38.18;35.32
10176;BME280;18221;38.704;0.152;2023-07-24T08:49:43;98292.81;;;38.17;35.51
10176;BME280;18221;38.704;0.152;2023-07-24T08:52:12;98304.31;;;37.69;36.95
10176;BME280;18221;38.704;0.152;2023-07-24T08:54:42;98296.44;;;37.80;37.03
10176;BME280;18221;38.704;0.152;2023-07-24T08:57:12;98279.75;;;37.59;37.32
10176;BME280;18221;38.704;0.152;2023-07-24T08:59:41;98294.47;;;37.42;37.90
10176;BME280;18221;38.704;0.152;2023-07-24T09:02:09;98316.03;;;37.11;38.58
10176;BME280;18221;38.704;0.152;2023-07-24T09:04:37;98318.81;;;36.85;38.93
10176;BME280;18221;38.704;0.152;2023-07-24T09:07:06;98308.09;;;36.67;39.29
10176;BME280;18221;38.704;0.152;2023-07-24T09:09:34;98285.78;;;36.20;40.48
10176;BME280;18221;38.704;0.152;2023-07-24T09:12:05;98291.94;;;36.17;41.10
10176;BME280;18221;38.704;0.152;2023-07-24T09:14:33;98282.47;;;36.01;41.54
10176;BME280;18221;38.704;0.152;2023-07-24T09:17:06;98299.50;;;35.86;42.00
10176;BME280;18221;38.704;0.152;2023-07-24T09:19:35;98297.34;;;35.66;42.22
10176;BME280;18221;38.704;0.152;2023-07-24T09:22:11;98271.69;;;35.74;42.59
10176;BME280;18221;38.704;0.152;2023-07-24T09:24:50;98278.69;;;35.88;42.76
10176;BME280;18221;38.704;0.152;2023-07-24T09:27:20;98272.34;;;35.88;42.49
10176;BME280;18221;38.704;0.152;2023-07-24T09:29:51;98269.19;;;36.03;41.78
10176;BME280;18221;38.704;0.152;2023-07-24T09:32:21;98275.31;;;36.00;41.69
10176;BME280;18221;38.704;0.152;2023-07-24T09:34:49;98249.84;;;36.20;41.24
10176;BME280;18221;38.704;0.152;2023-07-24T09:37:27;98247.25;;;36.15;41.95
10176;BME280;18221;38.704;0.152;2023-07-24T09:39:55;98254.69;;;35.98;41.99
10176;BME280;18221;38.704;0.152;2023-07-24T09:42:34;98288.31;;;35.52;43.16
10176;BME280;18221;38.704;0.152;2023-07-24T09:45:04;98282.25;;;35.10;44.52
10176;BME280;18221;38.704;0.152;2023-07-24T09:47:34;98267.06;;;35.21;44.34
10176;BME280;18221;38.704;0.152;2023-07-24T09:50:04;98282.56;;;34.87;45.36
10176;BME280;18221;38.704;0.152;2023-07-24T09:52:36;98320.47;;;34.72;45.75
10176;BME280;18221;38.704;0.152;2023-07-24T09:55:13;98337.13;;;34.54;46.24
10176;BME280;18221;38.704;0.152;2023-07-24T09:57:45;98326.09;;;34.67;45.87
10176;BME280;18221;38.704;0.152;2023-07-24T10:00:15;98326.03;;;34.81;45.61
10176;BME280;18221;38.704;0.152;2023-07-24T10:02:46;98309.22;;;34.91;45.75
10176;BME280;18221;38.704;0.152;2023-07-24T10:05:16;98258.38;;;35.06;44.78
10176;BME280;18221;38.704;0.152;2023-07-24T10:07:46;98228.84;;;35.06;44.73
10176;BME280;18221;38.704;0.152;2023-07-24T10:10:15;98240.25;;;34.91;44.37
10176;BME280;18221;38.704;0.152;2023-07-24T10:12:45;98261.56;;;34.99;44.49
10176;BME280;18221;38.704;0.152;2023-07-24T10:15:14;98260.38;;;34.92;44.74
10176;BME280;18221;38.704;0.152;2023-07-24T10:17:42;98270.34;;;35.01;44.67
10176;BME280;18221;38.704;0.152;2023-07-24T10:20:15;98267.00;;;35.13;44.71
10176;BME280;18221;38.704;0.152;2023-07-24T10:22:44;98282.94;;;35.16;44.90
10176;BME280;18221;38.704;0.152;2023-07-24T10:25:12;98303.72;;;35.13;44.45
10176;BME280;18221;38.704;0.152;2023-07-24T10:27:44;98286.56;;;35.03;44.78
10176;BME280;18221;38.704;0.152;2023-07-24T10:30:13;98263.38;;;35.04;45.18
10176;BME280;18221;38.704;0.152;2023-07-24T10:32:46;98320.63;;;35.20;44.57
10176;BME280;18221;38.704;0.152;2023-07-24T10:35:16;98350.59;;;34.91;44.90
10176;BME280;18221;38.704;0.152;2023-07-24T10:37:44;98320.50;;;35.03;44.40
10176;BME280;18221;38.704;0.152;2023-07-24T10:40:20;98262.22;;;34.96;44.77
10176;BME280;18221;38.704;0.152;2023-07-24T10:43:04;98272.75;;;34.72;45.34
10176;BME280;18221;38.704;0.152;2023-07-24T10:45:48;98307.84;;;34.80;46.17
10176;BME280;18221;38.704;0.152;2023-07-24T10:48:18;98278.88;;;34.91;45.72
10176;BME280;18221;38.704;0.152;2023-07-24T10:50:48;98247.75;;;35.21;45.32
10176;BME280;18221;38.704;0.152;2023-07-24T10:53:18;98242.47;;;35.42;44.98
10176;BME280;18221;38.704;0.152;2023-07-24T10:55:47;98213.31;;;35.58;44.08
10176;BME280;18221;38.704;0.152;2023-07-24T10:58:18;98200.34;;;35.76;43.81
10176;BME280;18221;38.704;0.152;2023-07-24T11:00:46;98234.50;;;35.97;43.60
10176;BME280;18221;38.704;0.152;2023-07-24T11:03:16;98296.59;;;36.00;42.98
10176;BME280;18221;38.704;0.152;2023-07-24T11:05:46;98341.66;;;35.61;44.55
10176;BME280;18221;38.704;0.152;2023-07-24T11:08:17;98333.31;;;35.52;44.05
10176;BME280;18221;38.704;0.152;2023-07-24T11:10:46;98309.06;;;35.49;44.10
10176;BME280;18221;38.704;0.152;2023-07-24T11:13:17;98322.00;;;35.31;43.81
10176;BME280;18221;38.704;0.152;2023-07-24T11:15:46;98310.06;;;35.22;44.51
10176;BME280;18221;38.704;0.152;2023-07-24T11:18:14;98294.19;;;35.19;44.25
10176;BME280;18221;38.704;0.152;2023-07-24T11:20:48;98314.19;;;35.25;44.76
10176;BME280;18221;38.704;0.152;2023-07-24T11:23:18;98306.94;;;35.38;44.71
10176;BME280;18221;38.704;0.152;2023-07-24T11:25:49;98318.25;;;35.27;44.82
10176;BME280;18221;38.704;0.152;2023-07-24T11:28:19;98328.97;;;35.29;44.56
10176;BME280;18221;38.704;0.152;2023-07-24T11:30:48;98269.25;;;35.42;44.64
10176;BME280;18221;38.704;0.152;2023-07-24T11:33:19;98272.16;;;35.37;44.45
10176;BME280;18221;38.704;0.152;2023-07-24T11:35:48;98331.25;;;35.35;45.25
10176;BME280;18221;38.704;0.152;2023-07-24T11:38:17;98342.22;;;35.49;44.93
10176;BME280;18221;38.704;0.152;2023-07-24T11:40:45;98320.31;;;35.92;43.89
10176;BME280;18221;38.704;0.152;2023-07-24T11:43:21;98298.31;;;36.26;43.31
10176;BME280;18221;38.704;0.152;2023-07-24T11:45:51;98268.06;;;36.47;42.78
10176;BME280;18221;38.704;0.152;2023-07-24T11:48:20;98254.41;;;36.59;40.63
10176;BME280;18221;38.704;0.152;2023-07-24T11:50:51;98246.47;;;36.58;40.38
10176;BME280;18221;38.704;0.152;2023-07-24T11:53:23;98262.53;;;36.73;40.84
10176;BME280;18221;38.704;0.152;2023-07-24T11:55:53;98304.19;;;36.59;41.05
10176;BME280;18221;38.704;0.152;2023-07-24T11:58:26;98322.88;;;36.36;41.57
10176;BME280;18221;38.704;0.152;2023-07-24T12:00:54;98314.53;;;36.19;41.84
10176;BME280;18221;38.704;0.152;2023-07-24T12:03:25;98308.53;;;36.17;42.26
10176;BME280;18221;38.704;0.152;2023-07-24T12:05:54;98287.91;;;36.23;42.15
10176;BME280;18221;38.704;0.152;2023-07-24T12:08:31;98238.78;;;36.20;41.93
10176;BME280;18221;38.704;0.152;2023-07-24T12:11:00;98162.84;;;36.18;41.58
10176;BME280;18221;38.704;0.152;2023-07-24T12:13:30;98165.09;;;35.73;42.93
10176;BME280;18221;38.704;0.152;2023-07-24T12:15:58;98161.72;;;35.28;44.63
10176;BME280;18221;38.704;0.152;2023-07-24T12:18:26;98146.66;;;35.43;44.70
10176;BME280;18221;38.704;0.152;2023-07-24T12:20:54;98139.56;;;35.67;43.99
10176;BME280;18221;38.704;0.152;2023-07-24T12:23:22;98141.53;;;35.58;44.03
10176;BME280;18221;38.704;0.152;2023-07-24T12:25:51;98165.59;;;35.66;44.08
10176;BME280;18221;38.704;0.152;2023-07-24T12:28:19;98174.28;;;35.51;44.45
10176;BME280;18221;38.704;0.152;2023-07-24T12:30:48;98169.19;;;35.27;44.62
10176;BME280;18221;38.704;0.152;2023-07-24T12:33:17;98138.00;;;35.35;44.45
10176;BME280;18221;38.704;0.152;2023-07-24T12:35:49;98159.72;;;35.11;44.74
10176;BME280;18221;38.704;0.152;2023-07-24T12:38:18;98203.34;;;34.79;45.72
10176;BME280;18221;38.704;0.152;2023-07-24T12:40:46;98232.47;;;34.62;46.74
10176;BME280;18221;38.704;0.152;2023-07-24T12:43:15;98253.81;;;34.79;45.99
10176;BME280;18221;38.704;0.152;2023-07-24T12:45:44;98263.47;;;34.90;46.14
10176;BME280;18221;38.704;0.152;2023-07-24T12:48:13;98233.56;;;35.06;45.54
10176;BME280;18221;38.704;0.152;2023-07-24T12:50:44;98203.06;;;35.11;45.53
10176;BME280;18221;38.704;0.152;2023-07-24T12:53:12;98211.94;;;34.77;45.74
10176;BME280;18221;38.704;0.152;2023-07-24T12:55:40;98200.56;;;34.70;45.80
10176;BME280;18221;38.704;0.152;2023-07-24T12:58:08;98194.78;;;34.80;45.34
10176;BME280;18221;38.704;0.152;2023-07-24T13:00:36;98201.63;;;34.91;45.41
10176;BME280;18221;38.704;0.152;2023-07-24T13:03:04;98169.72;;;34.99;45.23
10176;BME280;18221;38.704;0.152;2023-07-24T13:05:34;98159.41;;;35.13;45.12
10176;BME280;18221;38.704;0.152;2023-07-24T13:08:02;98170.97;;;35.23;44.40
10176;BME280;18221;38.704;0.152;2023-07-24T13:10:30;98168.88;;;35.29;44.35
10176;BME280;18221;38.704;0.152;2023-07-24T13:12:58;98154.72;;;35.30;44.20
10176;BME280;18221;38.704;0.152;2023-07-24T13:15:27;98177.25;;;35.15;44.94
10176;BME280;18221;38.704;0.152;2023-07-24T13:17:56;98194.00;;;35.19;44.74
10176;BME280;18221;38.704;0.152;2023-07-24T13:20:25;98226.16;;;35.23;44.37
10176;BME280;18221;38.704;0.152;2023-07-24T13:22:54;98229.25;;;35.30;43.98